createdAt,value
2017-12-04T00:00:28.021Z,195.70
2017-12-04T00:02:31.452Z,192.47
2017-12-04T00:04:34.242Z,231.33
2017-12-04T00:06:36.937Z,182.80
2017-12-04T00:08:39.686Z,197.70
2017-12-04T00:10:42.464Z,254.47
2017-12-04T00:12:45.130Z,235.37
2017-12-04T00:14:47.826Z,211.60
2017-12-04T00:16:52.206Z,261.90
2017-12-04T00:18:55.759Z,189.53
2017-12-04T00:20:58.439Z,232.63
2017-12-04T00:23:01.130Z,273.43
2017-12-04T00:25:03.788Z,218.77
2017-12-04T00:27:06.498Z,219.83
2017-12-04T00:29:09.210Z,208.20
2017-12-04T00:31:11.872Z,225.10
2017-12-04T00:33:14.835Z,208.67
2017-12-04T00:35:17.478Z,248.03
2017-12-04T00:37:20.140Z,194.13
2017-12-04T00:39:22.796Z,198.37
2017-12-04T00:41:25.445Z,259.17
2017-12-04T00:43:28.966Z,215.63
2017-12-04T00:45:31.616Z,193.37
2017-12-04T00:47:35.040Z,176.90
2017-12-04T00:49:37.732Z,203.80
2017-12-04T00:51:40.391Z,206.70
2017-12-04T00:53:43.033Z,237.13
2017-12-04T00:55:46.465Z,240.43
2017-12-04T00:57:49.133Z,215.53
2017-12-04T00:59:51.806Z,215.47
2017-12-04T01:01:54.483Z,275.27
2017-12-04T01:03:57.173Z,204.23
2017-12-04T01:05:59.857Z,233.67
2017-12-04T01:08:02.501Z,209.13
2017-12-04T01:10:05.144Z,206.50
2017-12-04T01:12:07.864Z,249.50
2017-12-04T01:14:10.505Z,179.67
2017-12-04T01:16:14.038Z,223.77
2017-12-04T01:18:16.699Z,172.77
2017-12-04T01:20:19.340Z,205.33
2017-12-04T01:22:22.053Z,212.90
2017-12-04T01:24:24.751Z,176.37
2017-12-04T01:26:27.402Z,223.53
2017-12-04T01:28:30.194Z,199.37
2017-12-04T01:30:32.902Z,201.17
2017-12-04T01:32:35.590Z,184.23
2017-12-04T01:34:38.318Z,184.43
2017-12-04T01:36:41.003Z,191.40
2017-12-04T01:38:43.688Z,196.57
2017-12-04T01:40:46.332Z,196.33
2017-12-04T01:42:49.769Z,207.50
2017-12-04T01:44:52.526Z,173.73
2017-12-04T01:46:55.206Z,262.40
2017-12-04T01:48:57.982Z,220.73
2017-12-04T01:51:00.771Z,228.97
2017-12-04T01:53:03.455Z,215.20
2017-12-04T01:55:06.137Z,192.90
2017-12-04T01:57:08.810Z,210.70
2017-12-04T01:59:11.501Z,188.30
2017-12-04T02:01:14.197Z,210.53
2017-12-04T02:03:16.903Z,209.23
2017-12-04T02:05:19.614Z,216.43
2017-12-04T02:07:22.311Z,206.67
2017-12-04T02:09:24.953Z,194.77
2017-12-04T02:11:27.611Z,243.57
2017-12-04T02:13:30.402Z,187.93
2017-12-04T02:15:33.066Z,224.97
2017-12-04T02:17:35.731Z,184.50
2017-12-04T02:19:39.176Z,192.10
2017-12-04T02:21:41.883Z,217.63
2017-12-04T02:23:44.582Z,192.33
2017-12-04T02:25:48.071Z,186.00
2017-12-04T02:27:51.520Z,207.17
2017-12-04T02:29:54.229Z,175.70
2017-12-04T02:31:57.704Z,231.77
2017-12-04T02:34:00.396Z,151.73
2017-12-04T02:36:03.052Z,167.53
2017-12-04T02:38:05.754Z,181.27
2017-12-04T02:40:08.401Z,198.50
2017-12-04T02:42:11.107Z,170.30
2017-12-04T02:44:13.817Z,154.90
2017-12-04T02:46:16.500Z,187.47
2017-12-04T02:48:19.215Z,175.77
2017-12-04T02:50:22.113Z,159.57
2017-12-04T02:52:24.820Z,175.93
2017-12-04T02:54:27.552Z,167.30
2017-12-04T02:56:30.269Z,169.80
2017-12-04T02:58:33.947Z,172.37
2017-12-04T03:00:36.837Z,176.57
2017-12-04T03:02:40.275Z,152.97
2017-12-04T03:04:42.935Z,171.60
2017-12-04T03:06:45.615Z,169.77
2017-12-04T03:08:48.278Z,178.47
2017-12-04T03:10:50.918Z,142.13
2017-12-04T03:12:53.603Z,131.43
2017-12-04T03:14:56.237Z,169.50
2017-12-04T03:16:58.974Z,144.33
2017-12-04T03:19:02.433Z,172.23
2017-12-04T03:21:05.114Z,153.47
2017-12-04T03:23:07.827Z,129.13
2017-12-04T03:25:10.500Z,165.67
2017-12-04T03:27:13.960Z,139.33
2017-12-04T03:29:16.673Z,146.63
2017-12-04T03:31:19.348Z,124.67
2017-12-04T03:33:22.035Z,118.23
2017-12-04T03:35:24.740Z,140.77
2017-12-04T03:37:27.444Z,124.47
2017-12-04T03:39:30.414Z,132.77
2017-12-04T03:41:33.097Z,137.70
2017-12-04T03:43:35.805Z,133.67
2017-12-04T03:45:39.301Z,128.80
2017-12-04T03:47:42.730Z,136.47
2017-12-04T03:49:45.498Z,150.07
2017-12-04T03:51:48.177Z,117.63
2017-12-04T03:53:50.839Z,120.77
2017-12-04T03:55:53.486Z,139.20
2017-12-04T03:57:56.166Z,125.53
2017-12-04T03:59:59.699Z,146.60
2017-12-04T04:02:02.352Z,121.93
2017-12-04T04:04:05.864Z,122.97
2017-12-04T04:06:08.545Z,123.37
2017-12-04T04:08:11.201Z,125.03
2017-12-04T04:10:14.651Z,114.67
2017-12-04T04:12:17.494Z,132.83
2017-12-04T04:14:20.163Z,132.33
2017-12-04T04:16:22.860Z,108.17
2017-12-04T04:21:08.547Z,106.13
2017-12-04T04:23:11.312Z,135.63
2017-12-04T04:25:14.029Z,115.47
2017-12-04T04:27:16.747Z,127.00
2017-12-04T04:29:20.218Z,144.83
2017-12-04T04:31:22.870Z,149.97
2017-12-04T04:33:25.554Z,137.50
2017-12-04T04:35:28.202Z,153.73
2017-12-04T04:37:30.871Z,185.77
2017-12-04T04:39:33.576Z,158.63
2017-12-04T04:41:36.252Z,143.10
2017-12-04T04:43:44.399Z,161.23
2017-12-04T04:45:47.849Z,148.87
2017-12-04T04:47:50.532Z,164.73
2017-12-04T04:49:53.227Z,175.23
2017-12-04T04:51:55.934Z,143.20
2017-12-04T04:53:59.392Z,156.17
2017-12-04T04:56:02.115Z,160.43
2017-12-04T04:58:05.550Z,156.40
2017-12-04T05:00:08.340Z,144.87
2017-12-04T05:02:11.123Z,153.07
2017-12-04T05:04:13.777Z,136.97
2017-12-04T05:06:16.457Z,134.37
2017-12-04T05:08:19.213Z,138.33
2017-12-04T05:10:22.033Z,170.57
2017-12-04T05:12:24.753Z,150.87
2017-12-04T05:14:28.374Z,148.50
2017-12-04T05:16:31.068Z,184.47
2017-12-04T05:18:33.775Z,159.07
2017-12-04T05:20:36.505Z,157.90
2017-12-04T05:22:39.189Z,153.13
2017-12-04T05:24:41.862Z,183.53
2017-12-04T05:26:44.538Z,163.57
2017-12-04T05:28:47.270Z,185.13
2017-12-04T05:30:50.700Z,194.93
2017-12-04T05:32:53.358Z,181.07
2017-12-04T05:34:56.793Z,170.67
2017-12-04T05:36:59.461Z,168.20
2017-12-04T05:39:02.147Z,186.53
2017-12-04T05:41:04.856Z,203.40
2017-12-04T05:43:07.522Z,192.27
2017-12-04T05:45:10.268Z,179.33
2017-12-04T05:47:13.109Z,189.80
2017-12-04T05:49:16.657Z,205.50
2017-12-04T05:51:19.334Z,201.83
2017-12-04T05:53:22.023Z,192.80
2017-12-04T05:55:24.687Z,225.23
2017-12-04T05:57:27.358Z,194.30
2017-12-04T05:59:30.033Z,206.43
2017-12-04T06:01:32.685Z,225.30
2017-12-04T06:03:35.328Z,198.60
2017-12-04T06:05:38.904Z,216.87
2017-12-04T06:07:41.558Z,215.13
2017-12-04T06:09:44.197Z,223.80
2017-12-04T06:11:46.881Z,214.87
2017-12-04T06:13:49.550Z,213.77
2017-12-04T06:15:52.216Z,191.80
2017-12-04T06:17:54.915Z,176.77
2017-12-04T06:19:57.597Z,206.77
2017-12-04T06:22:00.245Z,205.60
2017-12-04T06:24:03.695Z,207.50
2017-12-04T06:26:06.363Z,228.90
2017-12-04T06:28:09.115Z,197.27
2017-12-04T06:30:11.777Z,221.20
2017-12-04T06:32:14.567Z,200.47
2017-12-04T06:34:17.228Z,202.13
2017-12-04T06:36:20.679Z,217.73
2017-12-04T06:38:23.340Z,203.33
2017-12-04T06:40:25.999Z,202.83
2017-12-04T06:42:28.692Z,229.00
2017-12-04T06:44:31.572Z,180.97
2017-12-04T06:46:34.328Z,187.13
2017-12-04T06:48:37.032Z,239.10
2017-12-04T06:50:39.700Z,204.37
2017-12-04T06:52:42.352Z,201.33
2017-12-04T06:54:45.038Z,191.17
2017-12-04T06:56:47.820Z,224.97
2017-12-04T06:58:50.464Z,198.60
2017-12-04T07:00:53.984Z,190.43
2017-12-04T07:02:56.631Z,175.20
2017-12-04T07:05:00.049Z,218.70
2017-12-04T07:07:02.711Z,218.50
2017-12-04T07:09:05.379Z,186.00
2017-12-04T07:11:08.795Z,203.33
2017-12-04T07:13:11.960Z,188.80
2017-12-04T07:15:15.387Z,191.97
2017-12-04T07:17:18.036Z,188.37
2017-12-04T07:19:21.087Z,174.83
2017-12-04T07:21:23.746Z,172.83
2017-12-04T07:23:26.422Z,153.27
2017-12-04T07:25:29.167Z,178.40
2017-12-04T07:27:31.820Z,165.87
2017-12-04T07:29:35.318Z,188.23
2017-12-04T07:31:38.771Z,162.80
2017-12-04T07:33:42.562Z,158.93
2017-12-04T07:35:45.219Z,163.40
2017-12-04T07:37:47.892Z,123.27
2017-12-04T07:39:50.571Z,126.43
2017-12-04T07:41:53.223Z,141.00
2017-12-04T07:43:55.912Z,160.87
2017-12-04T07:45:58.596Z,159.10
2017-12-04T07:48:01.241Z,169.13
2017-12-04T07:50:04.683Z,129.67
2017-12-04T07:52:07.343Z,158.10
2017-12-04T07:54:10.113Z,133.23
2017-12-04T07:56:12.758Z,126.37
2017-12-04T07:58:16.192Z,129.00
2017-12-04T08:00:18.862Z,130.80
2017-12-04T08:02:21.577Z,130.80
2017-12-04T08:04:25.795Z,126.53
2017-12-04T08:06:28.457Z,113.47
2017-12-04T08:08:31.883Z,113.60
2017-12-04T08:10:35.313Z,116.63
2017-12-04T08:12:38.097Z,102.33
2017-12-04T08:14:40.767Z,107.43
2017-12-04T08:16:43.515Z,90.87
2017-12-04T08:18:46.963Z,85.03
2017-12-04T08:20:49.640Z,96.50
2017-12-04T08:22:52.296Z,104.13
2017-12-04T08:24:54.975Z,114.80
2017-12-04T08:26:57.744Z,99.97
2017-12-04T08:29:00.417Z,87.37
2017-12-04T08:31:03.073Z,96.27
2017-12-04T08:33:06.508Z,114.17
2017-12-04T08:35:09.203Z,111.23
2017-12-04T08:37:11.945Z,82.53
2017-12-04T08:39:14.631Z,86.53
2017-12-04T08:41:17.422Z,90.97
2017-12-04T08:43:20.091Z,76.23
2017-12-04T08:45:22.784Z,88.77
2017-12-04T08:47:25.494Z,73.73
2017-12-04T08:49:28.931Z,73.43
2017-12-04T08:51:31.756Z,77.70
2017-12-04T08:53:34.403Z,79.77
2017-12-04T08:55:37.051Z,65.73
2017-12-04T08:57:39.717Z,60.40
2017-12-04T08:59:42.411Z,101.23
2017-12-04T09:01:45.093Z,87.37
2017-12-04T09:03:47.796Z,207.47
2017-12-04T09:05:50.456Z,96.27
2017-12-04T09:07:54.135Z,72.20
2017-12-04T09:09:56.861Z,64.43
2017-12-04T09:12:00.288Z,80.80
2017-12-04T09:14:02.967Z,84.27
2017-12-04T09:16:05.655Z,82.13
2017-12-04T09:18:08.317Z,67.60
2017-12-04T09:20:11.013Z,62.40
2017-12-04T09:22:13.708Z,74.50
2017-12-04T09:24:16.370Z,57.70
2017-12-04T09:26:19.064Z,65.60
2017-12-04T09:28:21.766Z,69.67
2017-12-04T09:30:26.585Z,79.40
2017-12-04T09:32:29.291Z,66.67
2017-12-04T09:34:32.751Z,63.10
2017-12-04T09:36:35.458Z,75.43
2017-12-04T09:38:38.931Z,62.77
2017-12-04T09:40:41.649Z,63.17
2017-12-04T09:42:44.339Z,67.63
2017-12-04T09:44:47.114Z,62.60
2017-12-04T09:46:49.844Z,65.60
2017-12-04T09:48:52.529Z,59.63
2017-12-04T09:50:55.192Z,59.40
2017-12-04T09:52:57.869Z,65.53
2017-12-04T09:55:00.558Z,56.23
2017-12-04T09:57:03.239Z,62.20
2017-12-04T09:59:06.687Z,55.77
2017-12-04T10:01:09.366Z,50.80
2017-12-04T10:03:12.035Z,41.70
2017-12-04T10:05:14.724Z,50.40
2017-12-04T10:07:17.415Z,45.73
2017-12-04T10:09:20.113Z,36.43
2017-12-04T10:11:22.775Z,38.73
2017-12-04T10:13:25.465Z,39.97
2017-12-04T10:15:28.926Z,38.23
2017-12-04T10:17:31.594Z,47.13
2017-12-04T10:19:34.272Z,32.67
2017-12-04T10:21:36.965Z,43.40
2017-12-04T10:23:40.418Z,36.23
2017-12-04T10:25:43.083Z,36.30
2017-12-04T10:27:45.784Z,30.00
2017-12-04T10:29:48.448Z,33.70
2017-12-04T10:31:51.180Z,37.60
2017-12-04T10:33:53.903Z,37.47
2017-12-04T10:35:56.560Z,41.83
2017-12-04T10:38:00.366Z,31.37
2017-12-04T10:40:03.082Z,46.80
2017-12-04T10:42:05.770Z,33.10
2017-12-04T10:44:08.458Z,42.80
2017-12-04T10:46:11.165Z,32.87
2017-12-04T10:48:14.640Z,38.90
2017-12-04T10:50:17.332Z,33.70
2017-12-04T10:52:20.905Z,46.13
2017-12-04T10:54:23.594Z,48.60
2017-12-04T10:56:26.278Z,36.70
2017-12-04T10:58:29.717Z,34.53
2017-12-04T11:00:32.426Z,36.47
2017-12-04T11:02:35.149Z,39.80
2017-12-04T11:04:37.856Z,35.70
2017-12-04T11:06:40.528Z,43.13
2017-12-04T11:08:43.258Z,40.17
2017-12-04T11:10:46.715Z,30.17
2017-12-04T11:12:49.396Z,35.00
2017-12-04T11:14:52.069Z,41.00
2017-12-04T11:16:54.752Z,41.30
2017-12-04T11:18:57.448Z,47.77
2017-12-04T11:21:00.266Z,42.50
2017-12-04T11:23:02.971Z,32.90
2017-12-04T11:25:05.657Z,44.50
2017-12-04T11:27:08.377Z,41.33
2017-12-04T11:29:11.838Z,36.07
2017-12-04T11:31:14.532Z,39.07
2017-12-04T11:33:18.001Z,39.23
2017-12-04T11:35:20.680Z,33.13
2017-12-04T11:37:23.357Z,32.47
2017-12-04T11:39:26.859Z,37.30
2017-12-04T11:41:29.503Z,35.03
2017-12-04T11:43:32.176Z,48.17
2017-12-04T11:45:34.914Z,41.13
2017-12-04T11:47:38.366Z,34.40
2017-12-04T11:49:41.055Z,28.97
2017-12-04T11:51:43.800Z,29.73
2017-12-04T11:53:46.450Z,27.13
2017-12-04T11:55:49.131Z,34.40
2017-12-04T11:57:51.831Z,34.20
2017-12-04T11:59:54.503Z,39.13
2017-12-04T12:01:57.165Z,34.63
2017-12-04T12:03:59.965Z,27.63
2017-12-04T12:06:02.670Z,35.90
2017-12-04T12:08:05.318Z,28.30
2017-12-04T12:10:08.006Z,25.33
2017-12-04T12:12:10.686Z,39.03
2017-12-04T12:14:13.356Z,29.23
2017-12-04T12:16:16.106Z,25.90
2017-12-04T12:18:18.748Z,41.53
2017-12-04T12:20:22.162Z,34.63
2017-12-04T12:22:24.851Z,46.07
2017-12-04T12:24:27.647Z,36.67
2017-12-04T12:26:30.451Z,26.70
2017-12-04T12:28:37.861Z,35.17
2017-12-04T12:30:41.287Z,27.63
2017-12-04T12:32:44.067Z,37.90
2017-12-04T12:34:46.771Z,43.80
2017-12-04T12:36:49.431Z,30.33
2017-12-04T12:38:52.097Z,34.93
2017-12-04T12:40:54.783Z,26.93
2017-12-04T12:42:57.429Z,33.30
2017-12-04T12:45:00.943Z,24.87
2017-12-04T12:47:03.738Z,41.03
2017-12-04T12:49:06.390Z,33.50
2017-12-04T12:51:09.031Z,39.70
2017-12-04T12:53:11.783Z,31.40
2017-12-04T12:55:14.448Z,33.63
2017-12-04T12:57:17.086Z,26.13
2017-12-04T12:59:20.522Z,38.23
2017-12-04T13:01:23.173Z,40.90
2017-12-04T13:03:25.849Z,29.10
2017-12-04T13:05:28.651Z,31.77
2017-12-04T13:07:31.306Z,31.20
2017-12-04T13:09:33.950Z,23.70
2017-12-04T13:11:37.389Z,27.03
2017-12-04T13:13:40.243Z,26.80
2017-12-04T13:15:42.874Z,33.70
2017-12-04T13:17:45.552Z,28.63
2017-12-04T13:19:48.197Z,32.00
2017-12-04T13:21:50.847Z,28.80
2017-12-04T13:23:53.508Z,34.27
2017-12-04T13:25:56.931Z,30.80
2017-12-04T13:27:59.574Z,37.20
2017-12-04T13:30:03.133Z,30.37
2017-12-04T13:32:17.754Z,46.80
2017-12-04T13:36:59.460Z,29.47
2017-12-04T13:39:02.133Z,39.00
2017-12-04T13:41:04.818Z,34.30
2017-12-04T13:43:07.471Z,29.33
2017-12-04T13:45:18.349Z,27.20
2017-12-04T13:47:21.012Z,23.77
2017-12-04T13:49:23.709Z,31.87
2017-12-04T13:51:26.364Z,24.93
2017-12-04T13:53:29.044Z,29.33
2017-12-04T13:55:31.731Z,27.93
2017-12-04T13:57:34.377Z,30.50
2017-12-04T13:59:37.952Z,33.20
2017-12-04T14:01:40.779Z,28.10
2017-12-04T14:03:43.450Z,29.90
2017-12-04T14:05:46.166Z,31.23
2017-12-04T14:07:48.833Z,33.03
2017-12-04T14:09:51.484Z,32.80
2017-12-04T14:11:54.148Z,31.97
2017-12-04T14:13:57.598Z,30.27
2017-12-04T14:16:00.259Z,33.77
2017-12-04T14:18:02.964Z,31.03
2017-12-04T14:20:05.630Z,29.60
2017-12-04T14:22:08.375Z,35.27
2017-12-04T14:24:11.072Z,30.73
2017-12-04T14:26:13.831Z,32.07
2017-12-04T14:28:16.884Z,29.70
2017-12-04T14:30:19.609Z,39.90
2017-12-04T14:32:23.037Z,35.40
2017-12-04T14:34:25.693Z,34.53
2017-12-04T14:36:28.366Z,34.83
2017-12-04T14:38:31.027Z,41.30
2017-12-04T14:40:33.699Z,28.57
2017-12-04T14:42:36.380Z,27.73
2017-12-04T14:44:40.158Z,26.27
2017-12-04T14:46:42.966Z,23.67
2017-12-04T14:48:45.676Z,28.87
2017-12-04T14:50:48.365Z,22.77
2017-12-04T14:52:51.858Z,27.27
2017-12-04T14:54:55.384Z,35.63
2017-12-04T14:56:58.049Z,38.43
2017-12-04T14:59:01.046Z,31.13
2017-12-04T15:01:03.889Z,30.23
2017-12-04T15:03:07.366Z,30.23
2017-12-04T15:05:10.093Z,34.10
2017-12-04T15:07:12.974Z,30.03
2017-12-04T15:09:15.670Z,35.90
2017-12-04T15:11:18.345Z,37.83
2017-12-04T15:13:21.092Z,40.10
2017-12-04T15:15:23.795Z,30.57
2017-12-04T15:17:26.497Z,32.23
2017-12-04T15:19:29.227Z,36.37
2017-12-04T15:21:31.943Z,40.57
2017-12-04T15:23:34.700Z,33.47
2017-12-04T15:25:37.445Z,38.30
2017-12-04T15:27:40.902Z,34.40
2017-12-04T15:29:43.639Z,32.50
2017-12-04T15:31:46.338Z,35.83
2017-12-04T15:33:49.117Z,32.67
2017-12-04T15:35:51.825Z,33.53
2017-12-04T15:37:56.049Z,49.10
2017-12-04T15:39:59.519Z,35.30
2017-12-04T15:42:02.208Z,35.77
2017-12-04T15:44:06.025Z,28.67
2017-12-04T15:46:09.473Z,32.00
2017-12-04T15:48:12.173Z,37.47
2017-12-04T15:50:14.887Z,38.63
2017-12-04T15:52:18.344Z,38.67
2017-12-04T15:54:21.517Z,40.00
2017-12-04T15:56:24.241Z,30.40
2017-12-04T15:58:27.785Z,40.23
2017-12-04T16:00:30.473Z,43.03
2017-12-04T16:02:33.329Z,29.70
2017-12-04T16:04:36.053Z,54.07
2017-12-04T16:06:38.764Z,47.00
2017-12-04T16:08:41.492Z,38.60
2017-12-04T16:10:44.200Z,39.60
2017-12-04T16:12:47.647Z,49.73
2017-12-04T16:14:50.340Z,43.03
2017-12-04T16:16:53.032Z,47.47
2017-12-04T16:18:55.728Z,52.40
2017-12-04T16:20:59.172Z,40.63
2017-12-04T16:23:01.860Z,54.03
2017-12-04T16:25:04.707Z,48.13
2017-12-04T16:27:07.440Z,59.27
2017-12-04T16:29:10.149Z,48.57
2017-12-04T16:31:12.968Z,43.80
2017-12-04T16:33:15.693Z,64.43
2017-12-04T16:35:19.148Z,66.87
2017-12-04T16:37:21.863Z,63.27
2017-12-04T16:39:25.383Z,44.67
2017-12-04T16:41:28.161Z,45.77
2017-12-04T16:43:30.937Z,37.70
2017-12-04T16:45:33.625Z,45.37
2017-12-04T16:47:36.416Z,40.10
2017-12-04T16:49:39.148Z,43.73
2017-12-04T16:51:42.623Z,45.67
2017-12-04T16:53:45.302Z,47.10
2017-12-04T16:55:47.990Z,44.50
2017-12-04T16:57:51.543Z,44.40
2017-12-04T16:59:54.217Z,69.27
2017-12-04T17:01:58.017Z,53.93
2017-12-04T17:04:00.770Z,66.37
2017-12-04T17:06:03.463Z,46.67
2017-12-04T17:08:06.168Z,61.90
2017-12-04T17:10:08.854Z,52.77
2017-12-04T17:12:11.518Z,51.37
2017-12-04T17:14:14.251Z,79.37
2017-12-04T17:16:16.990Z,66.63
2017-12-04T17:18:19.750Z,57.07
2017-12-04T17:20:22.442Z,52.43
2017-12-04T17:22:25.210Z,70.13
2017-12-04T17:24:27.887Z,60.33
2017-12-04T17:26:31.386Z,58.50
2017-12-04T17:28:34.092Z,54.87
2017-12-04T17:30:57.794Z,56.77
2017-12-04T17:33:00.735Z,63.57
2017-12-04T17:35:04.204Z,57.43
2017-12-04T17:37:06.866Z,56.77
2017-12-04T17:39:09.547Z,76.03
2017-12-04T17:41:12.199Z,65.67
2017-12-04T17:43:14.861Z,90.47
2017-12-04T17:45:17.568Z,58.37
2017-12-04T17:47:20.265Z,81.13
2017-12-04T17:49:22.933Z,121.67
2017-12-04T17:51:25.784Z,80.07
2017-12-04T17:53:28.499Z,80.00
2017-12-04T17:55:31.235Z,73.43
2017-12-04T17:57:34.012Z,69.30
2017-12-04T17:59:36.689Z,57.23
2017-12-04T18:01:39.361Z,65.83
2017-12-04T18:03:42.077Z,63.97
2017-12-04T18:05:44.812Z,63.97
2017-12-04T18:07:47.510Z,58.87
2017-12-04T18:09:50.258Z,48.50
2017-12-04T18:11:52.964Z,60.73
2017-12-04T18:13:55.666Z,82.30
2017-12-04T18:15:58.394Z,86.43
2017-12-04T18:18:01.971Z,66.27
2017-12-04T18:20:06.837Z,61.40
2017-12-04T18:22:09.649Z,72.63
2017-12-04T18:24:12.477Z,59.57
2017-12-04T18:26:15.165Z,57.23
2017-12-04T18:28:17.977Z,53.53
2017-12-04T18:30:20.705Z,58.90
2017-12-04T18:32:23.398Z,57.67
2017-12-04T18:34:26.128Z,63.27
2017-12-04T18:36:28.839Z,58.07
2017-12-04T18:38:31.545Z,52.00
2017-12-04T18:40:34.255Z,57.17
2017-12-04T18:42:36.936Z,63.37
2017-12-04T18:44:39.629Z,50.70
2017-12-04T18:46:43.178Z,60.27
2017-12-04T18:48:45.864Z,56.60
2017-12-04T18:50:48.610Z,64.07
2017-12-04T18:52:51.327Z,67.03
2017-12-04T18:54:54.036Z,69.57
2017-12-04T18:56:57.541Z,61.40
2017-12-04T18:59:00.264Z,64.10
2017-12-04T19:01:03.171Z,59.53
2017-12-04T19:03:05.911Z,55.63
2017-12-04T19:05:08.621Z,56.20
2017-12-04T19:07:11.320Z,77.43
2017-12-04T19:09:14.813Z,63.90
2017-12-04T19:11:18.294Z,114.50
2017-12-04T19:13:21.028Z,90.57
2017-12-04T19:15:23.732Z,56.80
2017-12-04T19:17:26.472Z,68.90
2017-12-04T19:19:29.165Z,56.57
2017-12-04T19:21:31.915Z,58.73
2017-12-04T19:23:34.621Z,55.73
2017-12-04T19:25:37.340Z,48.40
2017-12-04T19:27:40.060Z,58.43
2017-12-04T19:29:42.791Z,63.90
2017-12-04T19:31:45.498Z,43.07
2017-12-04T19:33:48.227Z,48.83
2017-12-04T19:35:50.966Z,58.37
2017-12-04T19:37:53.674Z,51.43
2017-12-04T19:39:56.397Z,43.93
2017-12-04T19:41:59.867Z,44.23
2017-12-04T19:44:02.601Z,51.00
2017-12-04T19:46:05.327Z,61.70
2017-12-04T19:48:08.058Z,55.83
2017-12-04T19:50:11.643Z,51.67
2017-12-04T19:52:14.402Z,41.13
2017-12-04T19:54:17.989Z,39.33
2017-12-04T19:56:21.505Z,38.57
2017-12-04T19:58:24.275Z,51.07
2017-12-04T20:00:26.962Z,50.80
2017-12-04T20:02:29.668Z,53.70
2017-12-04T20:04:32.348Z,44.80
2017-12-04T20:06:35.041Z,52.30
2017-12-04T20:08:37.778Z,47.97
2017-12-04T20:10:40.479Z,44.50
2017-12-04T20:12:43.300Z,41.00
2017-12-04T20:14:46.789Z,43.90
2017-12-04T20:16:49.489Z,49.37
2017-12-04T20:18:52.211Z,42.87
2017-12-04T20:20:54.920Z,53.17
2017-12-04T20:22:57.631Z,64.30
2017-12-04T20:25:00.376Z,43.50
2017-12-04T20:27:03.884Z,48.77
2017-12-04T20:29:07.363Z,55.43
2017-12-04T20:31:10.063Z,56.73
2017-12-04T20:33:12.901Z,66.30
2017-12-04T20:35:16.360Z,61.17
2017-12-04T20:37:19.057Z,61.10
2017-12-04T20:39:21.792Z,74.50
2017-12-04T20:41:25.281Z,49.00
2017-12-04T20:43:28.736Z,54.30
2017-12-04T20:45:31.459Z,56.70
2017-12-04T20:47:34.920Z,51.73
2017-12-04T20:49:37.697Z,57.70
2017-12-04T20:51:40.442Z,48.67
2017-12-04T20:53:43.144Z,57.93
2017-12-04T20:55:46.155Z,61.30
2017-12-04T20:57:48.887Z,47.27
2017-12-04T20:59:51.599Z,61.37
2017-12-04T21:01:54.281Z,47.07
2017-12-04T21:03:57.026Z,34.37
2017-12-04T21:06:00.580Z,67.90
2017-12-04T21:08:15.196Z,41.10
2017-12-04T21:10:29.973Z,45.30
2017-12-04T21:12:33.397Z,58.33
2017-12-04T21:14:48.065Z,54.37
2017-12-04T21:17:03.448Z,48.83
2017-12-04T21:19:06.216Z,45.67
2017-12-04T21:21:08.898Z,49.87
2017-12-04T21:23:11.612Z,43.43
2017-12-04T21:25:14.361Z,57.00
2017-12-04T21:27:17.077Z,65.07
2017-12-04T21:29:19.808Z,49.67
2017-12-04T21:31:22.522Z,52.20
2017-12-04T21:33:25.218Z,54.47
2017-12-04T21:35:28.694Z,46.83
2017-12-04T21:37:31.423Z,50.37
2017-12-04T21:39:34.316Z,44.57
2017-12-04T21:41:37.106Z,46.53
2017-12-04T21:43:39.794Z,51.40
2017-12-04T21:45:42.641Z,60.27
2017-12-04T21:47:45.445Z,49.10
2017-12-04T21:49:48.927Z,66.67
2017-12-04T21:51:51.647Z,55.43
2017-12-04T21:53:54.371Z,52.03
2017-12-04T21:55:57.048Z,52.63
2017-12-04T21:57:59.764Z,54.27
2017-12-04T22:00:02.484Z,52.50
2017-12-04T22:02:05.200Z,62.40
2017-12-04T22:04:08.007Z,46.37
2017-12-04T22:06:10.680Z,56.80
2017-12-04T22:08:13.380Z,44.87
2017-12-04T22:10:16.840Z,62.93
2017-12-04T22:12:19.578Z,48.87
2017-12-04T22:14:22.357Z,53.63
2017-12-04T22:16:25.139Z,60.13
2017-12-04T22:18:27.914Z,56.70
2017-12-04T22:20:30.680Z,69.10
2017-12-04T22:22:33.689Z,82.57
2017-12-04T22:24:36.454Z,76.80
2017-12-04T22:26:39.172Z,79.50
2017-12-04T22:28:41.852Z,68.77
2017-12-04T22:30:44.584Z,72.33
2017-12-04T22:32:48.425Z,76.40
2017-12-04T22:34:51.144Z,79.47
2017-12-04T22:36:54.625Z,83.07
2017-12-04T22:38:58.089Z,91.50
2017-12-04T22:41:00.805Z,85.87
2017-12-04T22:43:04.292Z,125.03
2017-12-04T22:45:08.563Z,100.10
2017-12-04T22:47:11.290Z,91.17
2017-12-04T22:49:14.029Z,114.33
2017-12-04T22:51:16.706Z,104.23
2017-12-04T22:53:19.478Z,95.37
2017-12-04T22:55:22.160Z,96.20
2017-12-04T22:57:25.626Z,97.57
2017-12-04T22:59:28.379Z,102.70
2017-12-04T23:01:31.897Z,121.20
2017-12-04T23:03:34.602Z,101.93
2017-12-04T23:05:37.349Z,104.20
2017-12-04T23:07:40.029Z,101.23
2017-12-04T23:09:42.734Z,109.80
2017-12-04T23:11:45.479Z,111.10
2017-12-04T23:13:48.271Z,103.03
2017-12-04T23:15:51.036Z,106.03
2017-12-04T23:17:53.787Z,105.03
2017-12-04T23:19:57.250Z,108.30
2017-12-04T23:21:59.995Z,120.97
2017-12-04T23:24:02.724Z,105.30
2017-12-04T23:26:05.409Z,96.60
2017-12-04T23:28:08.902Z,134.73
2017-12-04T23:30:12.360Z,124.47
2017-12-04T23:32:15.038Z,109.33
2017-12-04T23:34:17.811Z,124.10
2017-12-04T23:36:20.539Z,127.07
2017-12-04T23:38:24.001Z,136.30
2017-12-04T23:40:26.834Z,150.50
2017-12-04T23:42:29.648Z,162.00
2017-12-04T23:44:32.300Z,159.40
2017-12-04T23:46:34.987Z,155.03
2017-12-04T23:48:37.681Z,184.10
2017-12-04T23:50:40.347Z,160.43
2017-12-04T23:52:43.033Z,118.50
2017-12-04T23:54:45.689Z,121.77
2017-12-04T23:56:48.346Z,156.20
2017-12-04T23:58:51.017Z,115.07
